Time;durP1;ratioP1;P1;durP2;ratioP2;P2;SDS_P1;SDS_P2;PMS_P1;PMS_P2;Temp;Humidity;BMP_temperature;BMP_pressure;BME280_temperature;BME280_humidity;BME280_pressure;Samples;Min_cycle;Max_cycle;Signal;HPM_P1;HPM_P2
2023/03/10 00:01:51;;;;;;;62.53;22.50;;;-0.20;99.90;;;;;;4997828;28;20380;-73
2023/03/10 00:04:18;;;;;;;57.25;21.95;;;-0.20;99.80;;;;;;4999632;28;20121;-73
2023/03/10 00:06:45;;;;;;;59.20;22.67;;;-0.20;99.80;;;;;;5002282;28;20081;-73
2023/03/10 00:09:12;;;;;;;58.15;22.98;;;-0.20;99.80;;;;;;5000113;28;20061;-73
2023/03/10 00:11:39;;;;;;;61.50;22.92;;;-0.20;99.80;;;;;;5001767;28;20637;-73
2023/03/10 00:14:06;;;;;;;58.25;20.95;;;-0.20;99.80;;;;;;4999282;28;20066;-73
2023/03/10 00:16:33;;;;;;;55.78;21.15;;;-0.20;99.80;;;;;;4995742;28;20057;-73
2023/03/10 00:18:59;;;;;;;62.45;22.75;;;-0.20;99.80;;;;;;4997144;28;20541;-73
2023/03/10 00:21:29;;;;;;;65.75;22.52;;;-0.20;99.80;;;;;;4999687;28;20041;-73
2023/03/10 00:23:56;;;;;;;65.55;24.05;;;-0.20;99.80;;;;;;4999198;28;20052;-74
2023/03/10 00:26:26;;;;;;;62.72;23.95;;;-0.20;99.80;;;;;;5014013;28;20060;-73
2023/03/10 00:28:54;;;;;;;68.05;25.88;;;-0.20;99.90;;;;;;4988715;28;20098;-73
2023/03/10 00:31:23;;;;;;;69.03;26.48;;;-0.20;99.90;;;;;;4999165;28;20049;-73
2023/03/10 00:33:53;;;;;;;77.13;26.45;;;-0.20;99.90;;;;;;5007475;28;20065;-72
2023/03/10 00:36:26;;;;;;;60.20;23.67;;;-0.20;99.90;;;;;;5001544;28;20411;-72
2023/03/10 00:38:54;;;;;;;61.65;22.98;;;-0.10;99.90;;;;;;5001953;28;20494;-71
2023/03/10 00:41:24;;;;;;;56.45;21.70;;;-0.20;99.90;;;;;;5001078;28;20057;-72
2023/03/10 00:43:51;;;;;;;60.33;22.90;;;-0.10;99.70;;;;;;5000937;28;20065;-72
2023/03/10 00:46:18;;;;;;;60.90;22.48;;;-0.20;99.80;;;;;;4999329;28;20069;-72
2023/03/10 00:48:45;;;;;;;58.35;21.88;;;-0.20;99.80;;;;;;5004286;28;20042;-71
2023/03/10 00:51:12;;;;;;;65.35;23.08;;;-0.10;99.80;;;;;;5002047;28;20053;-72
2023/03/10 00:53:40;;;;;;;58.90;22.58;;;-0.10;99.90;;;;;;5004996;28;20557;-72
2023/03/10 00:56:09;;;;;;;57.08;21.42;;;-0.10;100.00;;;;;;5004539;28;20498;-71
2023/03/10 00:58:37;;;;;;;62.08;23.30;;;-0.10;99.90;;;;;;5005141;28;20661;-72
2023/03/10 01:01:09;;;;;;;61.75;23.50;;;-0.20;99.90;;;;;;5005375;28;20057;-73
2023/03/10 01:03:36;;;;;;;70.50;26.42;;;-0.20;100.00;;;;;;4999744;28;20144;-75
2023/03/10 01:06:03;;;;;;;68.93;25.50;;;-0.20;100.00;;;;;;5002535;28;20058;-72
2023/03/10 01:08:30;;;;;;;63.08;24.58;;;-0.20;100.00;;;;;;5000966;28;20042;-72
2023/03/10 01:10:56;;;;;;;72.63;26.85;;;-0.20;100.00;;;;;;5005156;28;20470;-71
2023/03/10 01:13:23;;;;;;;84.72;30.10;;;-0.20;100.00;;;;;;5000955;28;20057;-72
2023/03/10 01:15:50;;;;;;;78.28;27.13;;;-0.20;100.00;;;;;;5000479;28;20513;-71
2023/03/10 01:18:19;;;;;;;90.32;29.48;;;-0.20;100.00;;;;;;5006037;28;20081;-72
2023/03/10 01:20:47;;;;;;;94.53;30.88;;;-0.20;100.00;;;;;;5005559;28;20050;-71
2023/03/10 01:23:22;;;;;;;74.43;28.08;;;-0.30;100.00;;;;;;5004804;28;20041;-71
2023/03/10 01:25:50;;;;;;;81.72;27.58;;;-0.20;100.00;;;;;;5002708;28;20053;-71
2023/03/10 01:28:17;;;;;;;84.90;26.40;;;-0.20;100.00;;;;;;5003779;28;20136;-72
2023/03/10 01:30:44;;;;;;;68.18;26.20;;;-0.30;100.00;;;;;;5005763;28;20938;-71
2023/03/10 01:33:12;;;;;;;69.57;24.85;;;-0.30;100.00;;;;;;5004792;28;20045;-72
2023/03/10 01:35:40;;;;;;;76.63;26.20;;;-0.30;100.00;;;;;;5003123;28;20145;-72
2023/03/10 01:38:07;;;;;;;62.97;22.15;;;-0.30;100.00;;;;;;5005370;28;20049;-72
2023/03/10 01:40:35;;;;;;;67.72;24.10;;;-0.30;100.00;;;;;;5003805;28;20042;-73
2023/03/10 01:43:29;;;;;;;65.40;22.95;;;-0.40;100.00;;;;;;5001428;28;20061;-72
2023/03/10 01:46:37;;;;;;;69.53;24.58;;;-0.40;100.00;;;;;;5001679;28;20050;-72
2023/03/10 01:49:22;;;;;;;70.05;23.55;;;-0.40;100.00;;;;;;4950926;28;20051;-72
2023/03/10 01:52:14;;;;;;;72.80;24.27;;;-0.40;100.00;;;;;;5001534;28;20068;-72
2023/03/10 01:54:45;;;;;;;67.72;23.65;;;-0.40;100.00;;;;;;5005563;28;20053;-71
2023/03/10 01:57:15;;;;;;;68.70;23.42;;;-0.40;100.00;;;;;;5005006;28;20050;-73
2023/03/10 01:59:42;;;;;;;77.90;25.23;;;-0.40;100.00;;;;;;5002874;28;20049;-72
2023/03/10 02:02:09;;;;;;;67.25;24.60;;;-0.40;100.00;;;;;;5002864;28;20046;-72
2023/03/10 02:04:42;;;;;;;63.55;21.25;;;-0.40;100.00;;;;;;5003285;28;20111;-72
2023/03/10 02:07:10;;;;;;;67.38;23.17;;;-0.40;100.00;;;;;;5004628;28;20045;-72
2023/03/10 02:09:42;;;;;;;67.88;25.25;;;-0.40;100.00;;;;;;5003528;28;20061;-74
2023/03/10 02:12:11;;;;;;;67.00;23.38;;;-0.40;100.00;;;;;;5000339;28;20815;-72
2023/03/10 02:14:38;;;;;;;74.65;24.00;;;-0.40;100.00;;;;;;5002998;28;20796;-72
2023/03/10 02:17:10;;;;;;;68.93;22.70;;;-0.50;100.00;;;;;;5003172;28;20062;-72
2023/03/10 02:19:52;;;;;;;67.88;23.25;;;-0.40;100.00;;;;;;5001586;28;20046;-72
2023/03/10 02:22:19;;;;;;;66.13;22.20;;;-0.40;100.00;;;;;;5003328;28;20084;-72
2023/03/10 02:25:09;;;;;;;65.78;21.77;;;-0.50;100.00;;;;;;5004165;28;20041;-72
2023/03/10 02:27:38;;;;;;;63.20;22.67;;;-0.50;100.00;;;;;;5000348;28;20144;-72
2023/03/10 02:30:07;;;;;;;56.75;20.42;;;-0.50;100.00;;;;;;5002385;28;20057;-72
2023/03/10 02:32:39;;;;;;;65.93;23.27;;;-0.50;100.00;;;;;;5003624;28;20054;-72
2023/03/10 02:35:07;;;;;;;63.75;20.58;;;-0.50;100.00;;;;;;4996720;28;20058;-72
2023/03/10 02:37:35;;;;;;;56.58;20.33;;;-0.50;100.00;;;;;;4996473;28;20050;-72
2023/03/10 02:40:03;;;;;;;54.53;20.10;;;-0.50;100.00;;;;;;5004122;28;20048;-73
2023/03/10 02:42:34;;;;;;;55.50;20.40;;;-0.50;100.00;;;;;;5001928;28;20046;-73
2023/03/10 02:45:03;;;;;;;49.53;19.70;;;-0.50;100.00;;;;;;5004653;28;20057;-72
2023/03/10 02:47:30;;;;;;;58.45;20.55;;;-0.50;100.00;;;;;;4997579;28;20467;-73
2023/03/10 02:49:57;;;;;;;58.88;21.85;;;-0.50;100.00;;;;;;5002990;28;20054;-72
2023/03/10 02:52:45;;;;;;;53.92;20.63;;;-0.50;100.00;;;;;;5001043;28;20050;-72
2023/03/10 02:55:16;;;;;;;54.97;20.25;;;-0.60;100.00;;;;;;5000033;28;20096;-72
2023/03/10 02:57:43;;;;;;;55.00;19.90;;;-0.60;100.00;;;;;;4996721;28;20056;-72
2023/03/10 03:00:11;;;;;;;57.20;20.60;;;-0.60;100.00;;;;;;4999935;28;20136;-72
2023/03/10 03:02:38;;;;;;;51.75;20.13;;;-0.60;100.00;;;;;;4995708;28;20044;-72
2023/03/10 03:05:06;;;;;;;60.40;21.02;;;-0.50;100.00;;;;;;4998057;28;20049;-72
2023/03/10 03:07:33;;;;;;;53.90;21.08;;;-0.60;100.00;;;;;;5001919;28;20048;-73
2023/03/10 03:10:00;;;;;;;56.28;19.95;;;-0.60;100.00;;;;;;5000565;28;20054;-72
2023/03/10 03:12:26;;;;;;;57.63;20.42;;;-0.60;100.00;;;;;;5001729;28;20764;-72
2023/03/10 03:14:53;;;;;;;57.97;20.30;;;-0.60;100.00;;;;;;5002587;28;20058;-72
2023/03/10 03:17:20;;;;;;;50.78;18.42;;;-0.60;100.00;;;;;;4998648;28;20049;-72
2023/03/10 03:19:47;;;;;;;56.80;20.33;;;-0.60;100.00;;;;;;4999695;28;20076;-72
2023/03/10 03:22:14;;;;;;;54.35;19.85;;;-0.60;100.00;;;;;;5004157;28;20694;-74
2023/03/10 03:24:40;;;;;;;61.70;21.65;;;-0.60;100.00;;;;;;5002934;28;20057;-73
2023/03/10 03:27:07;;;;;;;54.28;19.85;;;-0.60;100.00;;;;;;5003867;28;20749;-73
2023/03/10 03:29:34;;;;;;;53.10;18.48;;;-0.60;100.00;;;;;;4999619;28;20073;-73
2023/03/10 03:32:04;;;;;;;50.55;18.08;;;-0.60;100.00;;;;;;4998736;28;20772;-73
2023/03/10 03:34:33;;;;;;;60.78;20.35;;;-0.60;100.00;;;;;;4996429;28;20053;-74
2023/03/10 03:36:59;;;;;;;53.22;19.63;;;-0.60;100.00;;;;;;5003815;28;20130;-74
2023/03/10 03:39:26;;;;;;;56.97;20.13;;;-0.60;100.00;;;;;;5001151;28;20056;-73
2023/03/10 03:41:56;;;;;;;45.03;18.33;;;-0.60;100.00;;;;;;5003309;28;20625;-73
2023/03/10 03:44:22;;;;;;;52.38;18.70;;;-0.70;100.00;;;;;;5002499;28;20050;-74
2023/03/10 03:46:49;;;;;;;46.20;17.65;;;-0.70;100.00;;;;;;5002476;28;20054;-73
2023/03/10 03:49:16;;;;;;;48.45;19.83;;;-0.60;100.00;;;;;;5000799;28;20620;-73
2023/03/10 03:51:43;;;;;;;53.05;19.30;;;-0.70;100.00;;;;;;5002269;28;20057;-74
2023/03/10 03:54:10;;;;;;;52.38;18.67;;;-0.70;100.00;;;;;;5000735;28;20057;-73
2023/03/10 03:56:36;;;;;;;53.47;18.77;;;-0.70;100.00;;;;;;5000952;28;20061;-73
2023/03/10 03:59:04;;;;;;;50.72;18.63;;;-0.70;100.00;;;;;;5001899;28;20056;-73
2023/03/10 04:01:30;;;;;;;54.67;20.52;;;-0.70;100.00;;;;;;5000723;28;20049;-74
2023/03/10 04:03:57;;;;;;;53.63;20.20;;;-0.70;100.00;;;;;;5003166;23;20050;-74
2023/03/10 04:06:24;;;;;;;53.38;19.13;;;-0.70;100.00;;;;;;4981779;28;20050;-73
2023/03/10 04:08:51;;;;;;;50.90;19.65;;;-0.70;100.00;;;;;;4986622;28;20708;-74
2023/03/10 04:11:18;;;;;;;52.50;20.35;;;-0.70;100.00;;;;;;4976386;28;20065;-74
2023/03/10 04:13:44;;;;;;;49.70;18.20;;;-0.70;100.00;;;;;;4976759;28;20817;-73
2023/03/10 04:16:11;;;;;;;56.47;20.58;;;-0.70;100.00;;;;;;4986327;28;20058;-73
2023/03/10 04:18:38;;;;;;;57.78;19.35;;;-0.70;100.00;;;;;;4978719;28;20133;-73
2023/03/10 04:21:05;;;;;;;55.67;20.38;;;-0.80;100.00;;;;;;4978408;28;20121;-74
2023/03/10 04:23:32;;;;;;;57.80;20.50;;;-0.80;100.00;;;;;;4982463;28;20054;-73
2023/03/10 04:25:58;;;;;;;54.83;20.58;;;-0.80;100.00;;;;;;4980187;28;20055;-74
2023/03/10 04:28:25;;;;;;;54.97;19.92;;;-0.80;100.00;;;;;;4980532;28;20864;-73
2023/03/10 04:30:52;;;;;;;58.42;19.80;;;-0.80;100.00;;;;;;4971447;28;20058;-73
2023/03/10 04:33:19;;;;;;;55.97;20.15;;;-0.80;100.00;;;;;;4971753;28;20132;-73
2023/03/10 04:35:50;;;;;;;62.88;21.23;;;-0.80;100.00;;;;;;4976781;28;20656;-73
2023/03/10 04:38:17;;;;;;;56.97;20.00;;;-0.80;100.00;;;;;;4976509;28;20058;-73
2023/03/10 04:40:44;;;;;;;61.00;20.45;;;-0.80;100.00;;;;;;4976952;28;20050;-73
2023/03/10 04:43:11;;;;;;;63.35;21.77;;;-0.80;100.00;;;;;;4979827;28;20053;-74
2023/03/10 04:45:37;;;;;;;49.78;19.55;;;-0.80;100.00;;;;;;4987139;28;20045;-73
2023/03/10 04:48:04;;;;;;;52.80;20.50;;;-0.80;100.00;;;;;;4975109;28;20567;-73
2023/03/10 04:50:31;;;;;;;52.60;19.83;;;-0.80;100.00;;;;;;4972212;28;20063;-73
2023/03/10 04:52:58;;;;;;;55.88;20.08;;;-0.90;100.00;;;;;;4958794;28;20046;-73
2023/03/10 04:55:25;;;;;;;55.80;21.08;;;-0.80;100.00;;;;;;4973494;28;20418;-74
2023/03/10 04:57:51;;;;;;;63.15;22.70;;;-0.80;100.00;;;;;;4981787;28;20057;-73
2023/03/10 05:00:18;;;;;;;63.85;20.95;;;-0.90;100.00;;;;;;4969972;28;20053;-74
2023/03/10 05:02:45;;;;;;;62.63;20.88;;;-0.90;100.00;;;;;;4969410;28;20050;-73
2023/03/10 05:05:12;;;;;;;61.17;22.00;;;-0.90;100.00;;;;;;4969405;28;20086;-73
2023/03/10 05:07:39;;;;;;;61.80;22.52;;;-0.80;100.00;;;;;;4977132;28;20774;-73
2023/03/10 05:10:07;;;;;;;68.40;24.20;;;-0.90;100.00;;;;;;4960617;28;20054;-73
2023/03/10 05:12:33;;;;;;;59.53;21.75;;;-0.90;100.00;;;;;;4959792;28;20146;-74
2023/03/10 05:15:00;;;;;;;61.28;23.50;;;-0.90;100.00;;;;;;4967000;28;20043;-74
2023/03/10 05:17:28;;;;;;;70.93;23.48;;;-0.90;100.00;;;;;;4975461;28;20055;-73
2023/03/10 05:19:56;;;;;;;65.07;23.50;;;-0.90;100.00;;;;;;4977331;28;20062;-73
2023/03/10 05:22:23;;;;;;;61.08;21.52;;;-0.90;100.00;;;;;;4975307;28;20050;-73
2023/03/10 05:24:50;;;;;;;72.20;24.38;;;-0.90;100.00;;;;;;4966478;28;20054;-74
2023/03/10 05:27:18;;;;;;;70.38;25.10;;;-0.90;100.00;;;;;;4987439;28;20065;-73
2023/03/10 05:29:45;;;;;;;71.60;23.88;;;-0.90;100.00;;;;;;4980903;28;20061;-73
2023/03/10 05:32:12;;;;;;;68.80;23.45;;;-0.90;100.00;;;;;;4974740;28;20739;-74
2023/03/10 05:34:39;;;;;;;73.45;26.08;;;-0.90;100.00;;;;;;4976054;28;20046;-74
2023/03/10 05:37:05;;;;;;;75.13;26.42;;;-0.90;100.00;;;;;;4976713;28;20419;-74
2023/03/10 05:39:32;;;;;;;68.20;23.50;;;-0.90;100.00;;;;;;4959850;28;20492;-74
2023/03/10 05:41:59;;;;;;;73.93;25.10;;;-0.90;100.00;;;;;;4979456;28;20047;-74
2023/03/10 05:44:26;;;;;;;80.05;26.00;;;-0.90;100.00;;;;;;4978188;28;20490;-73
2023/03/10 05:46:53;;;;;;;76.00;25.70;;;-0.90;100.00;;;;;;4980348;28;20562;-74
2023/03/10 05:49:20;;;;;;;83.90;26.98;;;-0.90;100.00;;;;;;4964215;28;20069;-74
2023/03/10 05:51:47;;;;;;;81.28;27.73;;;-0.90;100.00;;;;;;4973343;28;20870;-74
2023/03/10 05:54:14;;;;;;;85.93;27.45;;;-1.00;100.00;;;;;;4960575;28;20066;-74
2023/03/10 05:56:41;;;;;;;82.47;27.30;;;-0.90;100.00;;;;;;4977697;28;20046;-73
2023/03/10 05:59:08;;;;;;;98.72;26.63;;;-0.90;100.00;;;;;;4982848;28;20718;-73
2023/03/10 06:01:36;;;;;;;80.57;26.15;;;-1.00;100.00;;;;;;4965041;28;20061;-74
2023/03/10 06:04:02;;;;;;;86.88;26.52;;;-1.00;100.00;;;;;;4958615;28;20145;-73
2023/03/10 06:06:29;;;;;;;80.60;27.70;;;-1.00;100.00;;;;;;4980898;28;20082;-74
2023/03/10 06:08:56;;;;;;;84.45;27.35;;;-1.00;100.00;;;;;;4985123;28;20684;-73
2023/03/10 06:11:23;;;;;;;87.30;28.42;;;-1.00;100.00;;;;;;4965991;28;20050;-74
2023/03/10 06:13:50;;;;;;;75.65;25.42;;;-0.90;100.00;;;;;;4984375;28;20050;-78
2023/03/10 06:16:17;;;;;;;84.43;27.48;;;-1.00;100.00;;;;;;4964037;28;20055;-74
2023/03/10 06:18:44;;;;;;;87.00;28.45;;;-0.90;100.00;;;;;;4975042;28;20133;-77
2023/03/10 06:21:14;;;;;;;83.38;26.50;;;-0.90;100.00;;;;;;4966032;28;20505;-77
2023/03/10 06:23:40;;;;;;;80.90;26.63;;;-0.90;100.00;;;;;;4981106;28;20348;-78
2023/03/10 06:26:11;;;;;;;88.47;25.30;;;-0.90;100.00;;;;;;4968776;28;20050;-77
2023/03/10 06:28:41;;;;;;;86.97;26.20;;;-0.90;100.00;;;;;;4982543;28;20386;-75
2023/03/10 06:31:15;;;;;;;91.13;26.75;;;-0.90;100.00;;;;;;4984328;28;20057;-76
2023/03/10 06:33:43;;;;;;;71.25;23.15;;;-0.80;100.00;;;;;;4960708;28;20124;-76
2023/03/10 06:36:11;;;;;;;83.57;25.63;;;-0.80;100.00;;;;;;4986465;28;21096;-74
2023/03/10 06:38:42;;;;;;;83.75;26.75;;;-0.80;100.00;;;;;;4984533;28;20694;-72
2023/03/10 06:41:11;;;;;;;82.15;26.48;;;-0.80;100.00;;;;;;4959530;28;20050;-72
2023/03/10 06:43:38;;;;;;;74.82;25.23;;;-0.80;100.00;;;;;;4968052;28;20691;-73
2023/03/10 06:46:08;;;;;;;71.00;25.02;;;-0.80;100.00;;;;;;4992160;28;20077;-73
2023/03/10 06:48:37;;;;;;;70.25;23.23;;;-0.80;100.00;;;;;;4963839;28;20051;-72
2023/03/10 06:51:09;;;;;;;75.05;24.73;;;-0.80;100.00;;;;;;4968868;28;20077;-72
2023/03/10 06:53:36;;;;;;;71.55;23.75;;;-0.80;100.00;;;;;;4988963;28;20057;-73
2023/03/10 06:56:10;;;;;;;69.20;24.42;;;-0.70;100.00;;;;;;4971654;28;20054;-73
2023/03/10 06:58:38;;;;;;;72.60;25.48;;;-0.70;100.00;;;;;;4965300;28;20081;-72
2023/03/10 07:01:06;;;;;;;76.13;24.40;;;-0.70;100.00;;;;;;4977721;28;20500;-72
2023/03/10 07:03:34;;;;;;;81.43;25.63;;;-0.70;100.00;;;;;;4968437;28;20053;-72
2023/03/10 07:06:01;;;;;;;67.35;24.08;;;-0.70;100.00;;;;;;4985319;28;20669;-72
2023/03/10 07:08:29;;;;;;;76.13;23.52;;;-0.70;100.00;;;;;;4970569;28;20038;-72
2023/03/10 07:10:56;;;;;;;68.20;23.30;;;-0.70;100.00;;;;;;4960019;28;20145;-72
2023/03/10 07:13:23;;;;;;;69.20;23.77;;;-0.70;100.00;;;;;;4982077;28;20762;-72
2023/03/10 07:15:50;;;;;;;75.35;25.33;;;-0.60;100.00;;;;;;4987491;28;20056;-72
2023/03/10 07:18:17;;;;;;;74.38;22.83;;;-0.60;100.00;;;;;;4962771;28;20057;-72
2023/03/10 07:20:44;;;;;;;72.35;23.15;;;-0.60;100.00;;;;;;4972935;28;20478;-72
2023/03/10 07:23:12;;;;;;;65.50;23.13;;;-0.60;100.00;;;;;;4978489;28;20051;-73
2023/03/10 07:25:40;;;;;;;76.75;23.85;;;-0.50;100.00;;;;;;4974991;28;20466;-72
2023/03/10 07:28:07;;;;;;;71.70;26.17;;;-0.50;100.00;;;;;;4975507;28;20054;-73
2023/03/10 07:30:35;;;;;;;60.40;21.73;;;-0.50;100.00;;;;;;4980302;28;20698;-72
2023/03/10 07:33:02;;;;;;;58.10;20.60;;;-0.50;100.00;;;;;;4990455;28;20050;-72
2023/03/10 07:35:29;;;;;;;67.75;22.52;;;-0.50;100.00;;;;;;4973494;28;20050;-72
2023/03/10 07:37:56;;;;;;;62.30;21.15;;;-0.40;100.00;;;;;;4975364;28;20062;-72
2023/03/10 07:40:23;;;;;;;62.35;22.52;;;-0.40;100.00;;;;;;4971473;28;20511;-73
2023/03/10 07:42:53;;;;;;;61.40;22.45;;;-0.40;100.00;;;;;;4991335;28;20050;-73
2023/03/10 07:45:21;;;;;;;64.72;22.85;;;-0.30;100.00;;;;;;4970482;28;20152;-73
2023/03/10 07:47:50;;;;;;;61.53;20.27;;;-0.30;100.00;;;;;;4974750;28;20057;-73
2023/03/10 07:50:17;;;;;;;63.97;21.83;;;-0.30;100.00;;;;;;4970975;28;20476;-72
2023/03/10 07:52:44;;;;;;;59.70;22.95;;;-0.40;100.00;;;;;;4982351;28;20061;-73
2023/03/10 07:55:12;;;;;;;64.32;22.42;;;-0.40;100.00;;;;;;4977325;28;20523;-73
2023/03/10 07:57:38;;;;;;;61.78;22.13;;;-0.30;100.00;;;;;;4971540;28;20061;-67
2023/03/10 08:00:06;;;;;;;57.10;19.83;;;-0.20;100.00;;;;;;4951736;28;20451;-66
2023/03/10 08:02:33;;;;;;;54.25;20.75;;;-0.20;100.00;;;;;;4965731;28;20057;-67
2023/03/10 08:05:00;;;;;;;60.88;20.88;;;-0.20;100.00;;;;;;4980626;28;20632;-67
2023/03/10 08:07:27;;;;;;;57.90;20.08;;;-0.20;100.00;;;;;;4979383;28;20054;-66
2023/03/10 08:09:54;;;;;;;60.92;21.63;;;-0.20;100.00;;;;;;4963226;28;20201;-68
2023/03/10 08:12:21;;;;;;;59.03;20.80;;;-0.10;100.00;;;;;;4977809;28;20051;-67
2023/03/10 08:14:49;;;;;;;65.45;22.08;;;-0.10;100.00;;;;;;4958551;28;20431;-67
2023/03/10 08:17:16;;;;;;;58.97;21.55;;;-0.10;100.00;;;;;;4974888;28;20066;-67
2023/03/10 08:19:43;;;;;;;61.58;20.83;;;-0.10;100.00;;;;;;4976325;28;20057;-67
2023/03/10 08:22:10;;;;;;;55.10;20.30;;;0.00;100.00;;;;;;4977400;28;20046;-67
2023/03/10 08:24:37;;;;;;;56.83;20.60;;;0.00;100.00;;;;;;4961284;28;20046;-67
2023/03/10 08:27:04;;;;;;;58.60;22.35;;;0.00;100.00;;;;;;4967300;28;20047;-67
2023/03/10 08:29:31;;;;;;;52.90;20.85;;;0.00;100.00;;;;;;4980480;28;20682;-67
2023/03/10 08:31:58;;;;;;;60.30;21.20;;;0.20;100.00;;;;;;4987297;28;20050;-67
2023/03/10 08:34:32;;;;;;;62.92;22.73;;;0.30;100.00;;;;;;4955535;28;20089;-67
2023/03/10 08:36:59;;;;;;;61.95;20.85;;;0.50;100.00;;;;;;4969773;28;20054;-67
2023/03/10 08:39:27;;;;;;;74.47;22.40;;;0.60;100.00;;;;;;4981085;28;20062;-67
2023/03/10 08:41:54;;;;;;;59.53;21.05;;;0.80;100.00;;;;;;4983741;28;20051;-67
2023/03/10 08:44:21;;;;;;;59.95;20.95;;;0.90;100.00;;;;;;4956061;28;20550;-67
2023/03/10 08:46:49;;;;;;;52.75;19.90;;;1.00;100.00;;;;;;4970154;28;20063;-67
2023/03/10 08:49:19;;;;;;;62.08;21.73;;;1.10;99.70;;;;;;4976277;28;20085;-67
2023/03/10 08:51:46;;;;;;;61.97;22.48;;;1.10;99.90;;;;;;4990342;28;20464;-67
2023/03/10 08:54:15;;;;;;;60.97;21.42;;;1.20;99.70;;;;;;4964950;28;20054;-68
2023/03/10 08:56:42;;;;;;;60.55;22.58;;;1.30;98.80;;;;;;4982755;28;20075;-67
2023/03/10 08:59:09;;;;;;;51.65;19.20;;;1.30;98.90;;;;;;4974974;28;20679;-67
2023/03/10 09:01:37;;;;;;;56.85;20.50;;;1.30;98.80;;;;;;4973500;28;20050;-68
2023/03/10 09:04:06;;;;;;;48.10;19.38;;;1.20;98.60;;;;;;4983018;28;20138;-67
2023/03/10 09:06:34;;;;;;;53.55;20.15;;;1.20;99.10;;;;;;4972088;28;20050;-67
2023/03/10 09:09:01;;;;;;;49.53;20.17;;;1.20;98.70;;;;;;4972456;28;20057;-67
2023/03/10 09:11:31;;;;;;;45.70;19.23;;;1.30;98.50;;;;;;4975292;28;20053;-68
2023/03/10 09:13:59;;;;;;;56.13;20.58;;;1.30;98.10;;;;;;4982743;28;20062;-65
2023/03/10 09:16:27;;;;;;;52.28;18.63;;;1.30;98.50;;;;;;4958479;28;20047;-68
2023/03/10 09:18:58;;;;;;;47.92;18.55;;;1.30;98.30;;;;;;4977817;28;20133;-68
2023/03/10 09:21:28;;;;;;;53.10;20.38;;;1.30;98.20;;;;;;4985352;28;20042;-68
2023/03/10 09:23:58;;;;;;;55.35;21.88;;;1.30;98.20;;;;;;4978103;28;20081;-68
2023/03/10 09:26:25;;;;;;;49.10;18.27;;;1.20;98.30;;;;;;4977613;28;20495;-76
2023/03/10 09:28:53;;;;;;;52.72;20.25;;;1.10;98.90;;;;;;4977352;28;20061;-75
2023/03/10 09:31:27;;;;;;;50.80;19.33;;;1.10;99.00;;;;;;4972654;28;20085;-76
2023/03/10 09:33:54;;;;;;;45.38;18.45;;;1.20;98.90;;;;;;4975647;28;20773;-77
2023/03/10 09:36:21;;;;;;;50.70;20.27;;;1.20;98.60;;;;;;4995041;23;20142;-77
2023/03/10 09:38:48;;;;;;;52.28;19.58;;;1.00;98.70;;;;;;5003898;28;20049;-70
2023/03/10 09:45:31;;;;;;;52.30;19.20;;;1.00;99.20;;;;;;4997615;28;20636;-70
2023/03/10 09:48:10;;;;;;;53.47;19.88;;;0.90;98.90;;;;;;4958321;28;20052;-70
2023/03/10 09:50:42;;;;;;;44.80;18.75;;;0.80;99.10;;;;;;4970878;28;20057;-70
2023/03/10 09:53:36;;;;;;;50.78;18.13;;;0.80;99.40;;;;;;4998975;28;20045;-70
2023/03/10 09:56:11;;;;;;;43.03;17.27;;;0.70;99.60;;;;;;5003658;28;20143;-70
2023/03/10 09:58:42;;;;;;;53.22;20.65;;;0.60;100.00;;;;;;4999727;28;20781;-70
2023/03/10 10:01:16;;;;;;;55.10;20.45;;;0.60;100.00;;;;;;5000294;28;20790;-70
2023/03/10 10:03:46;;;;;;;40.67;17.58;;;0.60;100.00;;;;;;4985892;28;20042;-69
2023/03/10 10:06:26;;;;;;;50.38;19.85;;;0.60;100.00;;;;;;4991844;28;20608;-70
2023/03/10 10:09:00;;;;;;;52.58;19.85;;;0.50;100.00;;;;;;4998602;28;20104;-70
2023/03/10 10:11:33;;;;;;;48.05;18.20;;;0.50;100.00;;;;;;4985463;28;20150;-70
2023/03/10 10:14:21;;;;;;;47.13;19.85;;;0.60;100.00;;;;;;5010883;28;20057;-70
2023/03/10 10:17:06;;;;;;;50.20;18.77;;;0.60;100.00;;;;;;4968115;28;20141;-70
2023/03/10 10:19:34;;;;;;;48.63;19.10;;;0.60;100.00;;;;;;4970191;28;20050;-70
2023/03/10 10:22:14;;;;;;;55.45;20.83;;;0.60;100.00;;;;;;5010842;28;20581;-70
2023/03/10 10:24:54;;;;;;;50.63;19.35;;;0.50;100.00;;;;;;4979561;28;20562;-70
2023/03/10 10:27:20;;;;;;;49.75;19.55;;;0.50;100.00;;;;;;4999418;28;20058;-70
2023/03/10 10:29:50;;;;;;;52.65;20.50;;;0.50;100.00;;;;;;5004247;28;20084;-69
2023/03/10 10:32:17;;;;;;;56.60;20.50;;;0.50;100.00;;;;;;5001901;28;20614;-70
2023/03/10 10:34:45;;;;;;;48.70;18.63;;;0.60;100.00;;;;;;4999118;28;20164;-69
2023/03/10 10:37:31;;;;;;;52.45;19.67;;;0.50;100.00;;;;;;5004714;28;20062;-69
2023/03/10 10:40:25;;;;;;;51.90;19.95;;;0.60;100.00;;;;;;4987102;28;20053;-70
2023/03/10 10:42:55;;;;;;;52.35;20.33;;;0.60;100.00;;;;;;4997306;28;20057;-70
2023/03/10 10:45:38;;;;;;;50.55;21.05;;;0.60;100.00;;;;;;4997206;28;20062;-70
2023/03/10 10:48:05;;;;;;;47.22;19.50;;;0.60;100.00;;;;;;5001019;28;20061;-71
2023/03/10 10:50:34;;;;;;;56.85;22.02;;;0.60;100.00;;;;;;4991432;28;20056;-70
2023/03/10 10:53:23;;;;;;;55.85;20.80;;;0.60;100.00;;;;;;5004177;28;20057;-70
2023/03/10 10:56:16;;;;;;;51.58;19.30;;;0.70;100.00;;;;;;4986959;28;20973;-69
2023/03/10 10:58:58;;;;;;;54.13;21.30;;;0.60;100.00;;;;;;5000037;28;20064;-70
2023/03/10 11:01:25;;;;;;;46.33;19.75;;;0.70;100.00;;;;;;4996423;28;20559;-69
2023/03/10 11:04:11;;;;;;;54.80;20.65;;;0.70;100.00;;;;;;4996536;28;20116;-70
2023/03/10 11:06:38;;;;;;;64.57;19.95;;;0.60;100.00;;;;;;4988768;28;20042;-69
2023/03/10 11:09:08;;;;;;;52.33;20.75;;;0.60;100.00;;;;;;5009152;28;20061;-69
2023/03/10 11:11:47;;;;;;;55.22;20.30;;;0.70;100.00;;;;;;4997245;28;20137;-70
2023/03/10 11:14:39;;;;;;;54.13;20.63;;;0.70;100.00;;;;;;5002054;28;20054;-70
2023/03/10 11:17:18;;;;;;;53.03;19.15;;;0.70;100.00;;;;;;4995266;28;20057;-70
2023/03/10 11:20:05;;;;;;;50.28;20.52;;;0.70;100.00;;;;;;4991741;28;20054;-70
2023/03/10 11:23:22;;;;;;;51.80;20.30;;;0.70;100.00;;;;;;4996117;28;20057;-70
2023/03/10 11:26:18;;;;;;;57.20;21.77;;;0.70;100.00;;;;;;4991828;28;20089;-75
2023/03/10 11:29:00;;;;;;;;;;;0.60;100.00;;;;;;5004021;28;20544;-75
2023/03/10 11:32:06;;;;;;;52.15;20.30;;;0.70;100.00;;;;;;5001677;28;20334;-75
2023/03/10 11:34:38;;;;;;;50.10;19.30;;;0.70;100.00;;;;;;5007778;28;20046;-75
2023/03/10 11:37:25;;;;;;;58.95;20.63;;;0.70;100.00;;;;;;4994840;28;20050;-75
2023/03/10 11:40:06;;;;;;;48.67;20.50;;;0.60;100.00;;;;;;5002465;28;20118;-75
2023/03/10 11:43:03;;;;;;;54.13;20.23;;;0.60;100.00;;;;;;5010938;28;20048;-74
2023/03/10 11:45:54;;;;;;;53.63;20.33;;;0.60;100.00;;;;;;4982583;28;20041;-74
2023/03/10 11:48:24;;;;;;;47.80;18.52;;;0.60;100.00;;;;;;4999172;28;20074;-74
2023/03/10 11:51:02;;;;;;;97.53;24.98;;;0.60;100.00;;;;;;5009373;28;20525;-77
2023/03/10 11:53:49;;;;;;;54.78;20.55;;;0.60;100.00;;;;;;4998008;28;20042;-79
2023/03/10 11:56:19;;;;;;;47.50;19.30;;;0.60;100.00;;;;;;4981089;28;20156;-76
2023/03/10 11:59:07;;;;;;;50.53;19.58;;;0.50;100.00;;;;;;4990999;28;20137;-75
2023/03/10 12:01:52;;;;;;;54.28;19.85;;;0.50;100.00;;;;;;5014751;28;20054;-75
2023/03/10 12:04:26;;;;;;;;;;;0.50;100.00;;;;;;4987667;28;20046;-76
2023/03/10 12:07:02;;;;;;;54.53;20.30;;;0.50;100.00;;;;;;5007457;28;19928;-76
2023/03/10 12:12:37;;;;;;;60.30;20.30;;;0.60;100.00;;;;;;4982751;28;20065;-70
2023/03/10 12:17:32;;;;;;;49.55;18.85;;;0.50;100.00;;;;;;4958214;28;20066;-70
2023/03/10 12:20:14;;;;;;;49.35;19.02;;;0.50;100.00;;;;;;4948361;28;20053;-70
2023/03/10 12:22:42;;;;;;;45.42;18.70;;;0.50;100.00;;;;;;4949336;28;20061;-70
2023/03/10 12:25:27;;;;;;;50.85;20.30;;;0.40;100.00;;;;;;4967495;28;20050;-70
2023/03/10 12:28:12;;;;;;;45.42;19.23;;;0.40;100.00;;;;;;4964031;28;20053;-70
2023/03/10 12:30:42;;;;;;;54.60;21.58;;;0.40;100.00;;;;;;4964189;28;20047;-70
2023/03/10 12:33:38;;;;;;;47.35;18.27;;;0.30;100.00;;;;;;4965744;28;20073;-70
2023/03/10 12:38:44;;;;;;;49.80;20.83;;;0.40;100.00;;;;;;4987096;28;20054;-70
2023/03/10 12:44:47;;;;;;;50.58;18.98;;;0.40;100.00;;;;;;4973535;28;20055;-70
2023/03/10 12:47:25;;;;;;;57.28;19.73;;;0.40;100.00;;;;;;4976185;28;20047;-70
2023/03/10 12:50:02;;;;;;;51.25;20.48;;;0.30;100.00;;;;;;4981700;28;20055;-71
2023/03/10 12:53:15;;;;;;;45.38;19.13;;;0.30;100.00;;;;;;4982892;28;20383;-71
2023/03/10 12:59:39;;;;;;;48.47;19.75;;;0.30;100.00;;;;;;4975452;28;20054;-75
2023/03/10 13:02:22;;;;;;;50.58;20.17;;;0.30;100.00;;;;;;4981599;28;20485;-76